createdAt,value
2022-08-30T00:01:24.638Z,2.88
2022-08-30T00:03:54.944Z,2.85
2022-08-30T00:06:26.749Z,3.13
2022-08-30T00:08:54.586Z,2.22
2022-08-30T00:11:29.031Z,2.40
2022-08-30T00:13:58.125Z,3.05
2022-08-30T00:16:27.362Z,2.92
2022-08-30T00:18:57.058Z,2.80
2022-08-30T00:21:27.277Z,3.25
2022-08-30T00:23:55.498Z,3.28
2022-08-30T00:26:23.307Z,2.83
2022-08-30T00:28:51.061Z,3.08
2022-08-30T00:31:19.215Z,3.47
2022-08-30T00:33:47.237Z,2.90
2022-08-30T00:36:15.956Z,2.70
2022-08-30T00:38:45.114Z,2.63
2022-08-30T00:41:13.076Z,2.92
2022-08-30T00:43:40.858Z,2.58
2022-08-30T00:46:10.162Z,3.03
2022-08-30T00:48:43.521Z,2.83
2022-08-30T00:51:15.362Z,3.05
2022-08-30T00:53:50.054Z,2.70
2022-08-30T00:56:20.188Z,2.80
2022-08-30T00:58:52.986Z,2.75
2022-08-30T01:01:21.636Z,2.83
2022-08-30T01:03:50.711Z,2.75
2022-08-30T01:06:18.981Z,2.72
2022-08-30T01:08:49.143Z,3.20
2022-08-30T01:11:23.072Z,2.88
2022-08-30T01:13:54.602Z,3.70
2022-08-30T01:16:23.366Z,3.25
2022-08-30T01:18:54.740Z,3.05
2022-08-30T01:21:29.824Z,3.60
2022-08-30T01:24:02.958Z,3.05
2022-08-30T01:26:33.631Z,3.08
2022-08-30T01:29:07.851Z,2.78
2022-08-30T01:31:36.878Z,3.13
2022-08-30T01:34:07.513Z,2.95
2022-08-30T01:36:38.075Z,3.00
2022-08-30T01:39:16.971Z,2.88
2022-08-30T01:41:45.794Z,2.67
2022-08-30T01:44:15.170Z,2.85
2022-08-30T01:46:47.836Z,3.22
2022-08-30T01:49:27.588Z,2.85
2022-08-30T01:52:01.163Z,2.60
2022-08-30T01:54:36.697Z,2.90
2022-08-30T01:57:07.156Z,2.80
2022-08-30T01:59:35.414Z,3.00
2022-08-30T02:02:03.469Z,2.45
2022-08-30T02:04:31.596Z,3.33
2022-08-30T02:06:59.751Z,2.75
2022-08-30T02:09:27.812Z,2.70
2022-08-30T02:11:56.999Z,2.72
2022-08-30T02:14:24.814Z,2.65
2022-08-30T02:16:52.784Z,2.58
2022-08-30T02:19:20.682Z,2.55
2022-08-30T02:21:48.442Z,2.92
2022-08-30T02:24:16.472Z,3.30
2022-08-30T02:26:44.207Z,2.90
2022-08-30T02:29:13.937Z,2.65
2022-08-30T02:31:42.125Z,2.53
2022-08-30T02:34:09.970Z,2.60
2022-08-30T02:36:39.441Z,2.50
2022-08-30T02:39:07.670Z,3.33
2022-08-30T02:41:35.551Z,2.80
2022-08-30T02:44:03.958Z,3.40
2022-08-30T02:46:34.654Z,3.17
2022-08-30T02:49:23.778Z,3.83
2022-08-30T02:51:51.261Z,4.40
2022-08-30T02:54:20.101Z,4.30
2022-08-30T02:56:48.550Z,4.50
2022-08-30T02:59:19.399Z,4.13
2022-08-30T03:01:48.914Z,3.95
2022-08-30T03:04:16.909Z,3.92
2022-08-30T03:06:45.504Z,3.95
2022-08-30T03:09:13.343Z,4.40
2022-08-30T03:11:42.000Z,3.70
2022-08-30T03:14:09.774Z,3.70
2022-08-30T03:16:37.587Z,3.30
2022-08-30T03:19:06.771Z,3.53
2022-08-30T03:21:34.799Z,3.50
2022-08-30T03:24:02.693Z,3.20
2022-08-30T03:26:30.454Z,3.10
2022-08-30T03:28:59.074Z,2.95
2022-08-30T03:31:26.930Z,3.55
2022-08-30T03:33:54.755Z,3.20
2022-08-30T03:36:24.129Z,3.40
2022-08-30T03:38:51.919Z,3.15
2022-08-30T03:41:19.787Z,3.22
2022-08-30T03:43:47.604Z,2.45
2022-08-30T03:46:15.902Z,3.30
2022-08-30T03:48:43.849Z,2.90
2022-08-30T03:51:11.632Z,2.92
2022-08-30T03:53:40.820Z,2.90
2022-08-30T03:56:08.561Z,2.92
2022-08-30T03:58:36.415Z,3.10
2022-08-30T04:01:04.570Z,2.75
2022-08-30T04:03:32.316Z,3.05
2022-08-30T04:06:00.647Z,3.10
2022-08-30T04:08:28.818Z,3.05
2022-08-30T04:10:58.269Z,2.78
2022-08-30T04:13:26.276Z,2.97
2022-08-30T04:15:54.182Z,3.00
2022-08-30T04:18:23.074Z,2.78
2022-08-30T04:20:52.936Z,2.63
2022-08-30T04:23:21.195Z,2.80
2022-08-30T04:25:49.300Z,2.58
2022-08-30T04:28:18.407Z,2.65
2022-08-30T04:30:47.282Z,2.65
2022-08-30T04:33:16.988Z,2.83
2022-08-30T04:35:48.531Z,3.03
2022-08-30T04:38:18.674Z,3.00
2022-08-30T04:40:50.677Z,3.20
2022-08-30T04:43:19.776Z,3.30
2022-08-30T04:45:48.156Z,3.03
2022-08-30T04:48:18.131Z,3.30
2022-08-30T04:50:46.498Z,3.28
2022-08-30T04:53:15.029Z,3.20
2022-08-30T04:55:44.537Z,3.45
2022-08-30T04:58:12.796Z,3.25
2022-08-30T05:00:45.433Z,3.72
2022-08-30T05:03:13.806Z,3.95
2022-08-30T05:05:41.770Z,3.95
2022-08-30T05:08:11.848Z,3.42
2022-08-30T05:10:41.659Z,3.63
2022-08-30T05:13:09.611Z,4.00
2022-08-30T05:15:39.649Z,3.78
2022-08-30T05:18:14.172Z,3.38
2022-08-30T05:20:44.356Z,3.00
2022-08-30T05:23:12.708Z,3.55
2022-08-30T05:25:43.108Z,3.35
2022-08-30T05:28:11.066Z,3.67
2022-08-30T05:30:39.203Z,3.80
2022-08-30T05:33:08.320Z,4.18
2022-08-30T05:35:36.135Z,4.00
2022-08-30T05:38:03.908Z,3.28
2022-08-30T05:40:32.325Z,3.15
2022-08-30T05:43:00.178Z,3.55
2022-08-30T05:45:27.979Z,4.30
2022-08-30T05:47:56.444Z,3.47
2022-08-30T05:50:25.550Z,3.97
2022-08-30T05:52:53.335Z,3.67
2022-08-30T05:55:21.581Z,3.97
2022-08-30T05:57:49.549Z,3.65
2022-08-30T06:00:20.070Z,3.80
2022-08-30T06:02:47.918Z,4.30
2022-08-30T06:05:15.702Z,3.75
2022-08-30T06:07:44.851Z,3.60
2022-08-30T06:10:13.233Z,3.92
2022-08-30T06:12:42.970Z,3.42
2022-08-30T06:15:12.533Z,3.85
2022-08-30T06:17:40.392Z,3.97
2022-08-30T06:20:09.983Z,3.75
2022-08-30T06:22:38.622Z,3.78
2022-08-30T06:25:09.859Z,3.53
2022-08-30T06:27:37.928Z,3.42
2022-08-30T06:30:08.352Z,3.95
2022-08-30T06:32:36.265Z,3.85
2022-08-30T06:35:04.953Z,3.72
2022-08-30T06:37:33.672Z,3.92
2022-08-30T06:40:03.192Z,3.47
2022-08-30T06:42:34.690Z,3.65
2022-08-30T06:45:10.772Z,3.38
2022-08-30T06:47:40.245Z,3.53
2022-08-30T06:50:11.132Z,3.53
2022-08-30T06:52:41.284Z,3.97
2022-08-30T06:55:11.645Z,3.63
2022-08-30T06:57:40.880Z,3.92
2022-08-30T07:00:13.740Z,3.33
2022-08-30T07:02:42.369Z,3.17
2022-08-30T07:05:16.753Z,3.55
2022-08-30T07:07:46.539Z,3.50
2022-08-30T07:10:15.324Z,3.78
2022-08-30T07:12:44.476Z,4.00
2022-08-30T07:15:12.991Z,3.53
2022-08-30T07:17:58.212Z,4.18
2022-08-30T07:20:25.998Z,3.92
2022-08-30T07:22:53.800Z,3.08
2022-08-30T07:25:21.923Z,3.83
2022-08-30T07:27:51.911Z,3.10
2022-08-30T07:30:20.801Z,3.85
2022-08-30T07:32:49.061Z,3.92
2022-08-30T07:35:17.208Z,4.45
2022-08-30T07:37:45.443Z,3.53
2022-08-30T07:40:13.975Z,3.25
2022-08-30T07:42:42.051Z,3.78
2022-08-30T07:45:13.002Z,4.10
2022-08-30T07:47:41.022Z,3.88
2022-08-30T07:50:09.793Z,3.85
2022-08-30T07:55:11.246Z,4.00
2022-08-30T07:57:39.048Z,3.47
2022-08-30T08:00:09.012Z,3.78
2022-08-30T08:02:40.509Z,3.55
2022-08-30T08:05:13.802Z,3.67
2022-08-30T08:07:44.333Z,3.97
2022-08-30T08:10:13.305Z,3.13
2022-08-30T08:12:42.150Z,3.47
2022-08-30T08:15:11.168Z,3.55
2022-08-30T08:17:40.253Z,3.80
2022-08-30T08:20:09.610Z,4.38
2022-08-30T08:22:40.034Z,3.85
2022-08-30T08:25:09.109Z,3.88
2022-08-30T08:27:36.910Z,4.00
2022-08-30T08:30:05.979Z,3.67
2022-08-30T08:32:33.779Z,3.75
2022-08-30T08:35:03.181Z,4.13
2022-08-30T08:37:31.055Z,3.58
2022-08-30T08:39:59.103Z,3.70
2022-08-30T08:42:42.703Z,3.90
2022-08-30T08:45:18.883Z,3.90
2022-08-30T08:47:58.050Z,4.25
2022-08-30T08:50:30.918Z,2.88
2022-08-30T08:53:45.536Z,3.95
2022-08-30T08:56:17.842Z,3.80
2022-08-30T08:58:48.906Z,3.92
2022-08-30T09:01:20.949Z,3.60
2022-08-30T09:03:50.043Z,3.70
2022-08-30T09:06:45.260Z,3.47
2022-08-30T09:09:14.198Z,3.40
2022-08-30T09:11:44.233Z,3.13
2022-08-30T09:14:20.078Z,3.15
2022-08-30T09:16:58.437Z,3.10
2022-08-30T09:19:40.355Z,3.70
2022-08-30T09:22:32.111Z,3.42
2022-08-30T09:25:05.820Z,3.55
2022-08-30T09:27:37.477Z,3.28
2022-08-30T09:30:14.783Z,3.55
2022-08-30T09:32:51.441Z,3.78
2022-08-30T09:35:23.238Z,3.55
2022-08-30T09:37:57.623Z,3.45
2022-08-30T09:40:34.956Z,3.85
2022-08-30T09:43:20.188Z,3.45
2022-08-30T09:46:00.506Z,3.55
2022-08-30T09:48:33.681Z,3.60
2022-08-30T09:51:41.454Z,3.03
2022-08-30T09:54:22.832Z,3.22
2022-08-30T09:57:12.848Z,3.25
2022-08-30T09:59:51.982Z,3.40
2022-08-30T10:03:02.488Z,3.20
2022-08-30T10:05:40.737Z,3.38
2022-08-30T10:08:21.774Z,3.50
2022-08-30T10:16:22.653Z,2.92
2022-08-30T10:19:06.953Z,3.50
2022-08-30T10:21:43.742Z,3.50
2022-08-30T10:24:19.599Z,3.08
2022-08-30T10:26:57.569Z,3.38
2022-08-30T10:29:33.618Z,3.15
2022-08-30T10:32:11.168Z,3.10
2022-08-30T10:34:42.942Z,3.42
2022-08-30T10:37:17.712Z,2.95
2022-08-30T10:39:50.930Z,3.50
2022-08-30T10:42:25.765Z,3.05
2022-08-30T10:45:04.928Z,2.92
2022-08-30T10:47:43.320Z,3.10
2022-08-30T10:50:17.380Z,3.10
2022-08-30T10:52:55.317Z,3.13
2022-08-30T10:55:29.020Z,3.00
2022-08-30T10:58:03.295Z,3.00
2022-08-30T11:00:42.843Z,3.40
2022-08-30T11:03:52.349Z,2.95
2022-08-30T11:06:30.264Z,2.97
2022-08-30T11:09:54.974Z,3.58
2022-08-30T11:13:00.696Z,3.00
2022-08-30T11:15:35.347Z,2.78
2022-08-30T11:18:12.196Z,3.05
2022-08-30T11:20:47.806Z,3.30
2022-08-30T11:23:33.599Z,3.00
2022-08-30T11:26:05.456Z,2.70
2022-08-30T11:29:09.460Z,3.05
2022-08-30T11:31:42.524Z,2.67
2022-08-30T11:34:12.910Z,2.55
2022-08-30T11:37:10.328Z,3.30
2022-08-30T11:40:13.223Z,2.65
2022-08-30T11:42:46.439Z,2.95
2022-08-30T11:45:45.670Z,2.97
2022-08-30T11:48:54.442Z,2.60
2022-08-30T11:52:27.761Z,3.20
2022-08-30T11:55:18.943Z,2.90
2022-08-30T11:57:58.312Z,3.10
2022-08-30T12:00:34.830Z,2.70
2022-08-30T12:03:06.864Z,3.20
2022-08-30T12:05:59.773Z,3.13
2022-08-30T12:09:02.727Z,2.90
2022-08-30T12:12:04.665Z,2.55
2022-08-30T12:14:51.908Z,2.95
2022-08-30T12:17:48.049Z,2.85
2022-08-30T12:20:29.691Z,3.20
2022-08-30T12:23:18.297Z,2.75
2022-08-30T12:25:46.545Z,2.92
2022-08-30T12:28:23.992Z,2.88
2022-08-30T12:30:52.492Z,2.75
2022-08-30T12:33:40.291Z,2.80
2022-08-30T12:36:15.853Z,2.80
2022-08-30T12:38:46.299Z,2.88
2022-08-30T12:41:22.545Z,2.72
2022-08-30T12:43:53.099Z,2.72
2022-08-30T12:46:23.336Z,3.00
2022-08-30T12:48:52.197Z,2.60
2022-08-30T12:51:39.464Z,2.50
2022-08-30T12:54:21.596Z,2.63
2022-08-30T12:57:19.067Z,2.67
2022-08-30T13:00:01.601Z,2.67
2022-08-30T13:02:47.401Z,2.80
2022-08-30T13:05:47.848Z,2.72
2022-08-30T13:08:22.371Z,2.53
2022-08-30T13:10:59.444Z,2.65
2022-08-30T13:13:37.354Z,2.72
2022-08-30T13:16:29.252Z,2.92
2022-08-30T13:19:28.832Z,2.28
2022-08-30T13:22:00.032Z,2.80
2022-08-30T13:24:28.958Z,2.38
2022-08-30T13:27:06.426Z,2.80
2022-08-30T13:29:34.301Z,2.67
2022-08-30T13:32:02.198Z,2.80
2022-08-30T13:34:32.932Z,2.90
2022-08-30T13:37:02.745Z,2.70
2022-08-30T13:39:30.911Z,2.67
2022-08-30T13:44:48.187Z,3.28
2022-08-30T13:47:35.128Z,2.90
2022-08-30T13:50:03.786Z,2.83
2022-08-30T13:52:31.581Z,3.05
2022-08-30T13:55:00.167Z,3.25
2022-08-30T14:00:21.792Z,2.67
2022-08-30T14:02:54.724Z,2.65
2022-08-30T14:11:07.342Z,2.55
2022-08-30T14:13:36.920Z,2.95
2022-08-30T14:18:57.098Z,2.70
2022-08-30T14:21:25.406Z,3.10
2022-08-30T14:23:53.495Z,2.40
2022-08-30T14:26:26.249Z,2.88
2022-08-30T14:29:02.619Z,2.75
2022-08-30T14:31:32.908Z,2.80
2022-08-30T14:34:02.098Z,3.45
2022-08-30T14:36:31.347Z,2.70
2022-08-30T14:38:59.258Z,2.90
2022-08-30T14:41:27.134Z,2.88
2022-08-30T14:43:54.926Z,3.03
2022-08-30T14:46:25.693Z,3.08
2022-08-30T14:48:54.698Z,3.08
2022-08-30T14:51:24.497Z,2.90
2022-08-30T14:53:54.539Z,2.70
2022-08-30T14:56:25.022Z,2.42
2022-08-30T14:59:00.144Z,2.65
2022-08-30T15:01:31.350Z,3.08
2022-08-30T15:04:00.373Z,2.58
2022-08-30T15:06:29.002Z,2.60
2022-08-30T15:08:57.473Z,2.80
2022-08-30T15:11:27.250Z,2.60
2022-08-30T15:13:57.490Z,3.00
2022-08-30T15:16:30.698Z,2.60
2022-08-30T15:19:00.844Z,2.80
2022-08-30T15:21:33.283Z,2.75
2022-08-30T15:24:03.152Z,2.75
2022-08-30T15:26:30.999Z,2.67
2022-08-30T15:28:59.036Z,2.30
2022-08-30T15:31:31.053Z,2.60
2022-08-30T15:34:00.216Z,2.70
2022-08-30T15:36:30.782Z,2.42
2022-08-30T15:39:00.493Z,2.60
2022-08-30T15:41:29.765Z,2.53
2022-08-30T15:43:59.581Z,2.38
2022-08-30T15:46:32.090Z,2.88
2022-08-30T15:49:03.810Z,3.05
2022-08-30T15:51:41.707Z,2.75
2022-08-30T15:54:11.950Z,2.80
2022-08-30T15:56:41.928Z,2.70
2022-08-30T15:59:11.204Z,2.70
2022-08-30T16:01:40.475Z,2.95
2022-08-30T16:04:08.438Z,2.78
2022-08-30T16:06:38.133Z,2.92
2022-08-30T16:09:07.996Z,3.10
2022-08-30T16:11:36.848Z,2.97
2022-08-30T16:14:07.207Z,2.72
2022-08-30T16:16:37.343Z,2.97
2022-08-30T16:19:06.916Z,2.80
2022-08-30T16:21:36.982Z,3.05
2022-08-30T16:24:07.575Z,3.00
2022-08-30T16:26:39.291Z,2.30
2022-08-30T16:29:09.026Z,2.88
2022-08-30T16:31:37.703Z,2.60
2022-08-30T16:34:07.055Z,2.75
2022-08-30T16:36:35.963Z,2.53
2022-08-30T16:39:08.494Z,2.38
2022-08-30T16:41:37.972Z,2.78
2022-08-30T16:44:06.717Z,2.53
2022-08-30T16:46:36.657Z,2.28
2022-08-30T16:49:06.235Z,2.40
2022-08-30T16:51:39.296Z,2.35
2022-08-30T16:54:08.762Z,2.08
2022-08-30T16:56:38.748Z,2.60
2022-08-30T16:59:11.137Z,1.92
2022-08-30T17:01:42.188Z,2.33
2022-08-30T17:04:13.762Z,2.00
2022-08-30T17:06:43.794Z,2.43
2022-08-30T17:09:11.774Z,2.22
2022-08-30T17:11:40.504Z,2.22
2022-08-30T17:14:09.528Z,1.98
2022-08-30T17:16:38.592Z,1.77
2022-08-30T17:19:11.520Z,2.28
2022-08-30T17:21:39.330Z,2.47
2022-08-30T17:24:07.561Z,2.30
2022-08-30T17:26:39.624Z,2.20
2022-08-30T17:29:08.050Z,2.15
2022-08-30T17:31:37.508Z,1.73
2022-08-30T17:34:06.140Z,1.90
2022-08-30T17:36:37.380Z,1.95
2022-08-30T17:39:11.142Z,1.80
2022-08-30T17:41:43.342Z,1.60
2022-08-30T17:44:13.820Z,1.35
2022-08-30T17:46:41.727Z,2.00
2022-08-30T17:49:10.603Z,1.33
2022-08-30T17:51:42.626Z,1.45
2022-08-30T17:54:12.645Z,1.52
2022-08-30T17:56:40.450Z,1.67
2022-08-30T17:59:09.322Z,1.73
2022-08-30T18:01:37.666Z,1.60
2022-08-30T18:04:06.546Z,1.27
2022-08-30T18:06:35.833Z,1.55
2022-08-30T18:09:07.205Z,1.67
2022-08-30T18:11:37.070Z,1.65
2022-08-30T18:14:05.428Z,1.73
2022-08-30T18:16:35.056Z,1.40
2022-08-30T18:19:04.327Z,1.85
2022-08-30T18:21:32.297Z,1.85
2022-08-30T18:24:00.347Z,1.88
2022-08-30T18:26:30.494Z,1.73
2022-08-30T18:28:59.062Z,1.77
2022-08-30T18:31:28.346Z,1.88
2022-08-30T18:33:58.873Z,1.30
2022-08-30T18:36:28.338Z,1.95
2022-08-30T18:38:56.294Z,1.67
2022-08-30T18:41:26.172Z,1.27
2022-08-30T18:44:24.044Z,2.22
2022-08-30T18:46:55.729Z,1.98
2022-08-30T18:49:24.713Z,1.55
2022-08-30T18:51:52.928Z,1.83
2022-08-30T18:54:21.313Z,1.75
2022-08-30T18:56:50.270Z,1.63
2022-08-30T18:59:20.940Z,1.50
2022-08-30T19:01:49.673Z,1.67
2022-08-30T19:04:30.074Z,1.63
2022-08-30T19:07:03.135Z,1.23
2022-08-30T19:09:31.616Z,1.83
2022-08-30T19:11:59.594Z,1.70
2022-08-30T19:14:29.109Z,1.55
2022-08-30T19:17:02.066Z,1.60
2022-08-30T19:19:32.784Z,1.30
2022-08-30T19:22:02.920Z,1.15
2022-08-30T19:24:30.738Z,1.40
2022-08-30T19:27:00.297Z,1.17
2022-08-30T19:29:29.634Z,1.58
2022-08-30T19:31:58.710Z,2.13
2022-08-30T19:34:27.945Z,1.20
2022-08-30T19:36:55.823Z,1.35
2022-08-30T19:39:23.733Z,3.28
2022-08-30T19:41:51.627Z,3.10
2022-08-30T19:44:19.729Z,1.73
2022-08-30T19:46:48.855Z,1.30
2022-08-30T19:49:16.631Z,1.15
2022-08-30T19:51:46.816Z,1.63
2022-08-30T19:54:15.889Z,1.08
2022-08-30T19:56:45.313Z,0.88
2022-08-30T19:59:16.082Z,1.35
2022-08-30T20:01:46.020Z,1.27
2022-08-30T20:04:15.871Z,1.88
2022-08-30T20:06:44.815Z,1.70
2022-08-30T20:09:12.817Z,1.70
2022-08-30T20:11:42.174Z,1.50
2022-08-30T20:14:10.982Z,1.67
2022-08-30T20:16:41.606Z,1.67
2022-08-30T20:19:11.685Z,1.50
2022-08-30T20:21:40.818Z,1.55
2022-08-30T20:24:10.063Z,1.67
2022-08-30T20:26:38.144Z,1.77
2022-08-30T20:29:07.260Z,2.15
2022-08-30T20:31:36.034Z,2.05
2022-08-30T20:34:05.622Z,1.70
2022-08-30T20:36:34.541Z,1.65
2022-08-30T20:39:09.396Z,1.75
2022-08-30T20:41:38.513Z,1.73
2022-08-30T20:44:11.915Z,1.47
2022-08-30T20:46:44.519Z,1.58
2022-08-30T20:49:13.769Z,1.65
2022-08-30T20:51:42.037Z,1.45
2022-08-30T20:54:11.281Z,2.03
2022-08-30T20:56:39.177Z,1.33
2022-08-30T20:59:07.698Z,2.00
2022-08-30T21:01:38.794Z,1.38
2022-08-30T21:04:09.410Z,1.75
2022-08-30T21:06:38.300Z,2.08
2022-08-30T21:09:08.218Z,1.92
2022-08-30T21:11:38.945Z,1.92
2022-08-30T21:14:12.587Z,1.92
2022-08-30T21:16:40.552Z,2.03
2022-08-30T21:19:08.475Z,2.10
2022-08-30T21:21:36.306Z,2.17
2022-08-30T21:24:09.772Z,2.03
2022-08-30T21:26:40.456Z,2.13
2022-08-30T21:29:09.769Z,2.22
2022-08-30T21:31:38.790Z,1.77
2022-08-30T21:34:07.824Z,1.83
2022-08-30T21:36:47.910Z,1.58
2022-08-30T21:39:20.752Z,1.80
2022-08-30T21:41:53.344Z,2.28
2022-08-30T21:44:25.861Z,2.08
2022-08-30T21:46:55.402Z,1.85
2022-08-30T21:49:25.202Z,2.05
2022-08-30T21:51:55.261Z,1.55
2022-08-30T21:54:24.746Z,1.92
2022-08-30T21:57:01.466Z,1.92
2022-08-30T21:59:29.782Z,2.08
2022-08-30T22:01:58.962Z,1.60
2022-08-30T22:04:27.640Z,1.63
2022-08-30T22:06:56.268Z,1.88
2022-08-30T22:09:26.382Z,1.80
2022-08-30T22:11:54.718Z,1.90
2022-08-30T22:14:24.136Z,1.75
2022-08-30T22:16:54.342Z,1.63
2022-08-30T22:19:23.470Z,1.98
2022-08-30T22:21:53.807Z,1.92
2022-08-30T22:24:29.291Z,1.70
2022-08-30T22:27:00.114Z,1.88
2022-08-30T22:29:30.122Z,1.45
2022-08-30T22:31:58.104Z,1.70
2022-08-30T22:34:26.128Z,1.73
2022-08-30T22:36:53.907Z,2.60
2022-08-30T22:39:21.720Z,1.25
2022-08-30T22:41:50.256Z,1.50
2022-08-30T22:44:18.797Z,1.83
2022-08-30T22:46:48.146Z,1.63
2022-08-30T22:49:15.975Z,1.65
2022-08-30T22:51:44.181Z,2.10
2022-08-30T22:54:12.334Z,2.10
2022-08-30T22:56:41.482Z,1.40
2022-08-30T22:59:09.656Z,1.42
2022-08-30T23:01:42.981Z,1.90
2022-08-30T23:04:13.118Z,2.08
2022-08-30T23:06:49.818Z,1.42
2022-08-30T23:09:18.702Z,1.90
2022-08-30T23:11:46.566Z,1.67
2022-08-30T23:14:14.400Z,2.05
2022-08-30T23:16:42.316Z,2.15
2022-08-30T23:19:10.160Z,1.67
2022-08-30T23:21:39.479Z,2.33
2022-08-30T23:24:25.282Z,1.67
2022-08-30T23:27:10.620Z,1.55
2022-08-30T23:29:56.825Z,1.35
2022-08-30T23:32:41.795Z,2.00
2022-08-30T23:35:30.623Z,1.70
2022-08-30T23:38:18.588Z,1.63
2022-08-30T23:41:03.656Z,1.80
2022-08-30T23:43:48.921Z,1.70
2022-08-30T23:46:34.676Z,1.80
2022-08-30T23:49:20.290Z,1.98
2022-08-30T23:52:05.748Z,1.85
2022-08-30T23:54:57.219Z,2.13
2022-08-30T23:57:43.782Z,2.17
